< Typhoon 202016 2020 Season Typhoon 202018 >
Typhoon 202017 (SAUDEL)
General InformationTrack Information on Google MapsDetailed Wind InformationForecast History on Google MapsAccess Analytics MapList of All Images || NewsDisaster Info.WeblogTrackbackTyphoon FrontTwiphoonTyphoon Now!Typhoon ImaginationJMA Disaster Info. XMLResourceGoogle EarthGE AnimationAtom FeedGeoJSON
Detalied Best Track (Time Zone = UTC)
Year Month Day Hour Lat. Long. Pressure (hPa) Wind (kt) Class Image Chart
2020 10 18 18 13.1 130.3 1004 0 2 Image Chart
2020 10 19 00 13.3 129.4 1004 0 2 Image Chart
2020 10 19 06 13.9 128.1 1002 0 2 Image Chart
2020 10 19 12 14.2 127.3 1002 0 2 Image Chart
2020 10 19 18 15.0 126.0 1002 0 2 Image Chart
2020 10 20 00 15.5 124.5 1000 35 3 Image Chart
2020 10 20 06 15.7 123.0 996 35 3 Image Chart
2020 10 20 12 15.8 121.8 996 35 3 Image Chart
2020 10 20 18 16.1 119.8 996 35 3 Image Chart
2020 10 21 00 16.0 118.8 996 35 3 Image Chart
2020 10 21 06 16.2 117.8 990 45 3 Image Chart
2020 10 21 12 15.8 117.4 985 55 4 Image Chart
2020 10 21 18 16.0 116.5 985 55 4 Image Chart
2020 10 22 00 16.8 116.3 980 60 4 Image Chart
2020 10 22 06 16.9 115.8 980 60 4 Image Chart
2020 10 22 12 17.1 115.9 975 65 5 Image Chart
2020 10 22 18 17.5 115.7 975 65 5 Image Chart
2020 10 23 00 17.5 115.3 975 65 5 Image Chart
2020 10 23 06 17.7 114.7 975 65 5 Image Chart
2020 10 23 12 17.9 114.2 980 60 4 Image Chart
2020 10 23 18 18.1 113.6 985 55 4 Image Chart
2020 10 24 00 18.2 113.1 985 55 4 Image Chart
2020 10 24 06 17.8 112.2 985 55 4 Image Chart
2020 10 24 12 17.7 111.1 990 50 4 Image Chart
2020 10 24 18 17.5 109.7 990 50 4 Image Chart
2020 10 25 00 17.5 109.0 992 45 3 Image Chart
2020 10 25 06 17.5 108.2 1000 35 3 Image Chart
2020 10 25 12 17.5 107.6 1006 0 2 Image Chart
Japan Meteorological Agency Best Track Data | Correction Date : 2021-01-15
< Typhoon 202016 2020 Season Typhoon 202018 >

Help